sensor_id;sensor_type;location;lat;lon;timestamp;pressure;altitude;pressure_sealevel;temperature;humidity
5996;BME280;3026;53.612;7.278;2024-02-16T00:02:00;100837.19;;;11.62;100.00
5996;BME280;3026;53.612;7.278;2024-02-16T00:04:28;100837.19;;;11.62;100.00
5996;BME280;3026;53.612;7.278;2024-02-16T00:06:55;100837.19;;;11.62;100.00
5996;BME280;3026;53.612;7.278;2024-02-16T00:09:24;100834.63;;;11.61;100.00
5996;BME280;3026;53.612;7.278;2024-02-16T00:11:51;100828.31;;;11.60;100.00
5996;BME280;3026;53.612;7.278;2024-02-16T00:14:19;100832.09;;;11.59;100.00
5996;BME280;3026;53.612;7.278;2024-02-16T00:16:48;100824.94;;;11.58;100.00
5996;BME280;3026;53.612;7.278;2024-02-16T00:19:15;100820.47;;;11.57;100.00
5996;BME280;3026;53.612;7.278;2024-02-16T00:21:43;100822.19;;;11.58;100.00
5996;BME280;3026;53.612;7.278;2024-02-16T00:24:10;100819.63;;;11.57;100.00
5996;BME280;3026;53.612;7.278;2024-02-16T00:26:39;100810.56;;;11.56;100.00
5996;BME280;3026;53.612;7.278;2024-02-16T00:29:06;100816.88;;;11.57;100.00
5996;BME280;3026;53.612;7.278;2024-02-16T00:31:34;100818.75;;;11.56;100.00
5996;BME280;3026;53.612;7.278;2024-02-16T00:34:01;100816.03;;;11.56;100.00
5996;BME280;3026;53.612;7.278;2024-02-16T00:36:28;100811.59;;;11.55;100.00
5996;BME280;3026;53.612;7.278;2024-02-16T00:38:57;100806.16;;;11.55;100.00
5996;BME280;3026;53.612;7.278;2024-02-16T00:41:24;100802.56;;;11.55;100.00
5996;BME280;3026;53.612;7.278;2024-02-16T00:43:54;100800.03;;;11.53;100.00
5996;BME280;3026;53.612;7.278;2024-02-16T00:46:22;100804.44;;;11.54;100.00
5996;BME280;3026;53.612;7.278;2024-02-16T00:48:51;100794.56;;;11.53;100.00
5996;BME280;3026;53.612;7.278;2024-02-16T00:51:20;100798.31;;;11.52;100.00
5996;BME280;3026;53.612;7.278;2024-02-16T00:53:50;100795.78;;;11.51;100.00
5996;BME280;3026;53.612;7.278;2024-02-16T00:56:19;100802.09;;;11.51;100.00
5996;BME280;3026;53.612;7.278;2024-02-16T00:58:47;100794.94;;;11.50;100.00
5996;BME280;3026;53.612;7.278;2024-02-16T01:01:15;100797.84;;;11.49;100.00
5996;BME280;3026;53.612;7.278;2024-02-16T01:03:43;100794.44;;;11.47;100.00
5996;BME280;3026;53.612;7.278;2024-02-16T01:06:10;100797.00;;;11.48;100.00
5996;BME280;3026;53.612;7.278;2024-02-16T01:08:38;100778.91;;;11.47;100.00
5996;BME280;3026;53.612;7.278;2024-02-16T01:11:05;100780.09;;;11.45;100.00
5996;BME280;3026;53.612;7.278;2024-02-16T01:13:33;100773.59;;;11.46;100.00
5996;BME280;3026;53.612;7.278;2024-02-16T01:16:00;100757.41;;;11.44;100.00
5996;BME280;3026;53.612;7.278;2024-02-16T01:18:30;100770.22;;;11.44;100.00
5996;BME280;3026;53.612;7.278;2024-02-16T01:20:58;100766.63;;;11.43;100.00
5996;BME280;3026;53.612;7.278;2024-02-16T01:23:29;100759.47;;;11.42;100.00
5996;BME280;3026;53.612;7.278;2024-02-16T01:25:56;100759.47;;;11.42;100.00
5996;BME280;3026;53.612;7.278;2024-02-16T01:28:23;100767.00;;;11.40;100.00
5996;BME280;3026;53.612;7.278;2024-02-16T01:30:52;100766.16;;;11.39;100.00
5996;BME280;3026;53.612;7.278;2024-02-16T01:33:22;100760.69;;;11.39;100.00
5996;BME280;3026;53.612;7.278;2024-02-16T01:35:51;100759.19;;;11.37;100.00
5996;BME280;3026;53.612;7.278;2024-02-16T01:38:19;100758.50;;;11.35;100.00
5996;BME280;3026;53.612;7.278;2024-02-16T01:40:48;100760.53;;;11.33;100.00
5996;BME280;3026;53.612;7.278;2024-02-16T01:43:18;100764.31;;;11.32;100.00
5996;BME280;3026;53.612;7.278;2024-02-16T01:45:46;100760.91;;;11.30;100.00
5996;BME280;3026;53.612;7.278;2024-02-16T01:48:14;100758.38;;;11.28;100.00
5996;BME280;3026;53.612;7.278;2024-02-16T01:50:42;100755.81;;;11.27;100.00
5996;BME280;3026;53.612;7.278;2024-02-16T01:53:13;100755.16;;;11.25;100.00
5996;BME280;3026;53.612;7.278;2024-02-16T01:55:44;100749.00;;;11.23;100.00
5996;BME280;3026;53.612;7.278;2024-02-16T01:58:11;100745.59;;;11.21;100.00
5996;BME280;3026;53.612;7.278;2024-02-16T02:00:39;100747.66;;;11.19;100.00
5996;BME280;3026;53.612;7.278;2024-02-16T02:03:06;100737.13;;;11.16;100.00
5996;BME280;3026;53.612;7.278;2024-02-16T02:05:34;100740.88;;;11.15;100.00
5996;BME280;3026;53.612;7.278;2024-02-16T02:08:09;100737.47;;;11.13;100.00
5996;BME280;3026;53.612;7.278;2024-02-16T02:10:38;100735.78;;;11.12;100.00
5996;BME280;3026;53.612;7.278;2024-02-16T02:13:05;100739.50;;;11.10;100.00
5996;BME280;3026;53.612;7.278;2024-02-16T02:15:32;100738.66;;;11.10;100.00
5996;BME280;3026;53.612;7.278;2024-02-16T02:18:02;100742.41;;;11.09;100.00
5996;BME280;3026;53.612;7.278;2024-02-16T02:20:29;100731.69;;;11.07;100.00
5996;BME280;3026;53.612;7.278;2024-02-16T02:22:59;100727.28;;;11.06;100.00
5996;BME280;3026;53.612;7.278;2024-02-16T02:25:27;100730.00;;;11.06;100.00
5996;BME280;3026;53.612;7.278;2024-02-16T02:27:55;100726.59;;;11.04;100.00
5996;BME280;3026;53.612;7.278;2024-02-16T02:30:23;100725.75;;;11.04;100.00
5996;BME280;3026;53.612;7.278;2024-02-16T02:32:51;100725.94;;;11.02;100.00
5996;BME280;3026;53.612;7.278;2024-02-16T02:35:23;100729.00;;;10.99;100.00
5996;BME280;3026;53.612;7.278;2024-02-16T02:37:51;100719.13;;;10.98;100.00
5996;BME280;3026;53.612;7.278;2024-02-16T02:40:20;100715.53;;;10.98;100.00
5996;BME280;3026;53.612;7.278;2024-02-16T02:42:47;100711.97;;;10.97;100.00
5996;BME280;3026;53.612;7.278;2024-02-16T02:45:15;100713.00;;;10.96;100.00
5996;BME280;3026;53.612;7.278;2024-02-16T02:47:43;100709.59;;;10.94;100.00
5996;BME280;3026;53.612;7.278;2024-02-16T02:50:13;100703.47;;;10.92;100.00
5996;BME280;3026;53.612;7.278;2024-02-16T02:52:40;100705.34;;;10.92;100.00
5996;BME280;3026;53.612;7.278;2024-02-16T02:55:08;100707.22;;;10.91;100.00
5996;BME280;3026;53.612;7.278;2024-02-16T02:57:36;100700.09;;;10.90;100.00
5996;BME280;3026;53.612;7.278;2024-02-16T03:00:05;100703.84;;;10.89;100.00
5996;BME280;3026;53.612;7.278;2024-02-16T03:02:36;100696.66;;;10.88;100.00
5996;BME280;3026;53.612;7.278;2024-02-16T03:05:05;100696.66;;;10.88;100.00
5996;BME280;3026;53.612;7.278;2024-02-16T03:07:34;100691.56;;;10.85;100.00
5996;BME280;3026;53.612;7.278;2024-02-16T03:10:03;100690.72;;;10.85;100.00
5996;BME280;3026;53.612;7.278;2024-02-16T03:12:32;100686.47;;;10.82;100.00
5996;BME280;3026;53.612;7.278;2024-02-16T03:15:04;100689.38;;;10.80;100.00
5996;BME280;3026;53.612;7.278;2024-02-16T03:17:31;100684.13;;;10.79;100.00
5996;BME280;3026;53.612;7.278;2024-02-16T03:19:59;100686.84;;;10.79;100.00
5996;BME280;3026;53.612;7.278;2024-02-16T03:22:26;100686.16;;;10.77;100.00
5996;BME280;3026;53.612;7.278;2024-02-16T03:24:53;100680.03;;;10.75;100.00
5996;BME280;3026;53.612;7.278;2024-02-16T03:27:20;100676.63;;;10.73;100.00
5996;BME280;3026;53.612;7.278;2024-02-16T03:29:47;100667.78;;;10.71;100.00
5996;BME280;3026;53.612;7.278;2024-02-16T03:32:16;100662.69;;;10.68;100.00
5996;BME280;3026;53.612;7.278;2024-02-16T03:34:43;100678.38;;;10.66;100.00
5996;BME280;3026;53.612;7.278;2024-02-16T03:37:10;100667.63;;;10.64;100.00
5996;BME280;3026;53.612;7.278;2024-02-16T03:39:38;100675.97;;;10.63;100.00
5996;BME280;3026;53.612;7.278;2024-02-16T03:42:05;100678.03;;;10.61;100.00
5996;BME280;3026;53.612;7.278;2024-02-16T03:44:32;100670.03;;;10.59;100.00
5996;BME280;3026;53.612;7.278;2024-02-16T03:46:59;100676.72;;;10.57;100.00
5996;BME280;3026;53.612;7.278;2024-02-16T03:49:28;100680.66;;;10.54;100.00
5996;BME280;3026;53.612;7.278;2024-02-16T03:51:56;100688.31;;;10.50;100.00
5996;BME280;3026;53.612;7.278;2024-02-16T03:54:23;100692.91;;;10.50;100.00
5996;BME280;3026;53.612;7.278;2024-02-16T03:56:53;100690.38;;;10.48;100.00
5996;BME280;3026;53.612;7.278;2024-02-16T03:59:21;100688.66;;;10.47;100.00
5996;BME280;3026;53.612;7.278;2024-02-16T04:01:49;100696.84;;;10.47;100.00
5996;BME280;3026;53.612;7.278;2024-02-16T04:04:17;100696.16;;;10.45;100.00
5996;BME280;3026;53.612;7.278;2024-02-16T04:06:46;100696.16;;;10.45;100.00
5996;BME280;3026;53.612;7.278;2024-02-16T04:09:15;100683.56;;;10.44;100.00
5996;BME280;3026;53.612;7.278;2024-02-16T04:11:42;100670.97;;;10.43;100.00
5996;BME280;3026;53.612;7.278;2024-02-16T04:14:12;100668.44;;;10.42;100.00
5996;BME280;3026;53.612;7.278;2024-02-16T04:16:42;100659.38;;;10.41;100.00
5996;BME280;3026;53.612;7.278;2024-02-16T04:19:12;100655.97;;;10.39;100.00
5996;BME280;3026;53.612;7.278;2024-02-16T04:21:41;100660.41;;;10.40;100.00
5996;BME280;3026;53.612;7.278;2024-02-16T04:24:10;100647.78;;;10.39;100.00
5996;BME280;3026;53.612;7.278;2024-02-16T04:26:37;100652.41;;;10.39;100.00
5996;BME280;3026;53.612;7.278;2024-02-16T04:29:04;100659.72;;;10.38;100.00
5996;BME280;3026;53.612;7.278;2024-02-16T04:31:32;100662.81;;;10.35;100.00
5996;BME280;3026;53.612;7.278;2024-02-16T04:34:01;100665.53;;;10.35;100.00
5996;BME280;3026;53.612;7.278;2024-02-16T04:36:30;100666.56;;;10.34;100.00
5996;BME280;3026;53.612;7.278;2024-02-16T04:38:57;100671.34;;;10.32;100.00
5996;BME280;3026;53.612;7.278;2024-02-16T04:41:27;100677.81;;;10.31;100.00
5996;BME280;3026;53.612;7.278;2024-02-16T04:43:54;100663.16;;;10.32;100.00
5996;BME280;3026;53.612;7.278;2024-02-16T04:46:22;100651.56;;;10.30;100.00
5996;BME280;3026;53.612;7.278;2024-02-16T04:48:49;100658.06;;;10.29;100.00
5996;BME280;3026;53.612;7.278;2024-02-16T04:51:17;100652.59;;;10.29;100.00
5996;BME280;3026;53.612;7.278;2024-02-16T04:53:44;100659.25;;;10.27;100.00
5996;BME280;3026;53.612;7.278;2024-02-16T04:56:12;100649.19;;;10.27;100.00
5996;BME280;3026;53.612;7.278;2024-02-16T04:58:41;100652.97;;;10.26;100.00
5996;BME280;3026;53.612;7.278;2024-02-16T05:01:09;100651.25;;;10.25;100.00
5996;BME280;3026;53.612;7.278;2024-02-16T05:03:36;100647.88;;;10.23;100.00
5996;BME280;3026;53.612;7.278;2024-02-16T05:06:06;100651.63;;;10.22;100.00
5996;BME280;3026;53.612;7.278;2024-02-16T05:08:33;100658.75;;;10.23;100.00
5996;BME280;3026;53.612;7.278;2024-02-16T05:11:02;100657.06;;;10.22;100.00
5996;BME280;3026;53.612;7.278;2024-02-16T05:13:29;100649.88;;;10.21;100.00
5996;BME280;3026;53.612;7.278;2024-02-16T05:15:58;100659.94;;;10.20;100.00
5996;BME280;3026;53.612;7.278;2024-02-16T05:18:25;100662.84;;;10.19;100.00
5996;BME280;3026;53.612;7.278;2024-02-16T05:20:53;100659.25;;;10.18;100.00
5996;BME280;3026;53.612;7.278;2024-02-16T05:23:21;100655.66;;;10.18;100.00
5996;BME280;3026;53.612;7.278;2024-02-16T05:25:48;100664.88;;;10.17;100.00
5996;BME280;3026;53.612;7.278;2024-02-16T05:28:22;100663.16;;;10.16;100.00
5996;BME280;3026;53.612;7.278;2024-02-16T05:30:49;100657.72;;;10.16;100.00
5996;BME280;3026;53.612;7.278;2024-02-16T05:33:20;100646.81;;;10.16;100.00
5996;BME280;3026;53.612;7.278;2024-02-16T05:35:46;100644.28;;;10.14;100.00
5996;BME280;3026;53.612;7.278;2024-02-16T05:38:17;100637.97;;;10.14;100.00
5996;BME280;3026;53.612;7.278;2024-02-16T05:40:58;100652.63;;;10.13;100.00
5996;BME280;3026;53.612;7.278;2024-02-16T05:43:27;100645.66;;;10.10;100.00
5996;BME280;3026;53.612;7.278;2024-02-16T05:45:54;100642.09;;;10.10;100.00
5996;BME280;3026;53.612;7.278;2024-02-16T05:48:22;100642.09;;;10.10;100.00
5996;BME280;3026;53.612;7.278;2024-02-16T05:50:52;100633.25;;;10.08;100.00
5996;BME280;3026;53.612;7.278;2024-02-16T05:53:19;100634.25;;;10.07;100.00
5996;BME280;3026;53.612;7.278;2024-02-16T05:55:46;100631.50;;;10.07;100.00
5996;BME280;3026;53.612;7.278;2024-02-16T05:58:15;100639.88;;;10.05;100.00
5996;BME280;3026;53.612;7.278;2024-02-16T06:00:44;100642.75;;;10.04;100.00
5996;BME280;3026;53.612;7.278;2024-02-16T06:03:14;100636.47;;;10.03;100.00
5996;BME280;3026;53.612;7.278;2024-02-16T06:05:42;100646.53;;;10.03;100.00
5996;BME280;3026;53.612;7.278;2024-02-16T06:08:10;100627.44;;;10.03;100.00
5996;BME280;3026;53.612;7.278;2024-02-16T06:10:38;100630.19;;;10.03;100.00
5996;BME280;3026;53.612;7.278;2024-02-16T06:13:05;100638.34;;;10.03;100.00
5996;BME280;3026;53.612;7.278;2024-02-16T06:15:33;100623.03;;;10.02;100.00
5996;BME280;3026;53.612;7.278;2024-02-16T06:18:04;100624.06;;;10.01;100.00
5996;BME280;3026;53.612;7.278;2024-02-16T06:20:31;100630.19;;;10.03;100.00
5996;BME280;3026;53.612;7.278;2024-02-16T06:23:04;100632.91;;;10.03;100.00
5996;BME280;3026;53.612;7.278;2024-02-16T06:25:33;100631.88;;;10.04;100.00
5996;BME280;3026;53.612;7.278;2024-02-16T06:28:00;100636.47;;;10.03;100.00
5996;BME280;3026;53.612;7.278;2024-02-16T06:30:28;100643.63;;;10.04;100.00
5996;BME280;3026;53.612;7.278;2024-02-16T06:32:56;100629.81;;;10.06;100.00
5996;BME280;3026;53.612;7.278;2024-02-16T06:35:24;100631.50;;;10.07;100.00
5996;BME280;3026;53.612;7.278;2024-02-16T06:37:51;100638.69;;;10.08;100.00
5996;BME280;3026;53.612;7.278;2024-02-16T06:40:21;100636.63;;;10.10;100.00
5996;BME280;3026;53.612;7.278;2024-02-16T06:42:48;100629.50;;;10.09;100.00
5996;BME280;3026;53.612;7.278;2024-02-16T06:45:16;100634.94;;;10.09;100.00
5996;BME280;3026;53.612;7.278;2024-02-16T06:47:44;100640.38;;;10.09;100.00
5996;BME280;3026;53.612;7.278;2024-02-16T06:50:11;100634.94;;;10.09;100.00
5996;BME280;3026;53.612;7.278;2024-02-16T06:52:38;100632.03;;;10.10;100.00
5996;BME280;3026;53.612;7.278;2024-02-16T06:55:06;100621.13;;;10.10;100.00
5996;BME280;3026;53.612;7.278;2024-02-16T06:57:35;100616.53;;;10.11;100.00
5996;BME280;3026;53.612;7.278;2024-02-16T07:00:03;100614.00;;;10.09;100.00
5996;BME280;3026;53.612;7.278;2024-02-16T07:02:30;100617.75;;;10.08;100.00
5996;BME280;3026;53.612;7.278;2024-02-16T07:04:58;100622.34;;;10.08;100.00
5996;BME280;3026;53.612;7.278;2024-02-16T07:07:25;100645.84;;;10.09;100.00
5996;BME280;3026;53.612;7.278;2024-02-16T07:09:53;100631.50;;;10.07;100.00
5996;BME280;3026;53.612;7.278;2024-02-16T07:12:20;100632.41;;;10.07;100.00
5996;BME280;3026;53.612;7.278;2024-02-16T07:14:52;100623.19;;;10.08;100.00
5996;BME280;3026;53.612;7.278;2024-02-16T07:17:19;100649.59;;;10.08;100.00
5996;BME280;3026;53.612;7.278;2024-02-16T07:19:46;100641.25;;;10.09;100.00
5996;BME280;3026;53.612;7.278;2024-02-16T07:22:13;100652.97;;;10.10;100.00
5996;BME280;3026;53.612;7.278;2024-02-16T07:24:47;100655.53;;;10.11;100.00
5996;BME280;3026;53.612;7.278;2024-02-16T07:27:14;100654.50;;;10.12;100.00
5996;BME280;3026;53.612;7.278;2024-02-16T07:29:43;100651.59;;;10.14;100.00
5996;BME280;3026;53.612;7.278;2024-02-16T07:32:11;100656.03;;;10.15;100.00
5996;BME280;3026;53.612;7.278;2024-02-16T07:34:39;100661.13;;;10.18;100.00
5996;BME280;3026;53.612;7.278;2024-02-16T07:37:06;100662.84;;;10.19;100.00
5996;BME280;3026;53.612;7.278;2024-02-16T07:39:36;100647.88;;;10.23;100.00
5996;BME280;3026;53.612;7.278;2024-02-16T07:42:04;100656.72;;;10.25;100.00
5996;BME280;3026;53.612;7.278;2024-02-16T07:44:31;100652.59;;;10.29;100.00
5996;BME280;3026;53.612;7.278;2024-02-16T07:46:59;100658.56;;;10.33;100.00
5996;BME280;3026;53.612;7.278;2024-02-16T07:49:28;100667.91;;;10.38;100.00
5996;BME280;3026;53.612;7.278;2024-02-16T07:51:55;100662.09;;;10.41;100.00
5996;BME280;3026;53.612;7.278;2024-02-16T07:54:23;100656.31;;;10.44;100.00
5996;BME280;3026;53.612;7.278;2024-02-16T07:56:50;100655.94;;;10.47;100.00
5996;BME280;3026;53.612;7.278;2024-02-16T07:59:17;100658.13;;;10.52;100.00
5996;BME280;3026;53.612;7.278;2024-02-16T08:01:47;100652.34;;;10.55;100.00
5996;BME280;3026;53.612;7.278;2024-02-16T08:04:13;100662.03;;;10.58;100.00
5996;BME280;3026;53.612;7.278;2024-02-16T08:06:42;100657.09;;;10.61;100.00
5996;BME280;3026;53.612;7.278;2024-02-16T08:09:09;100673.94;;;10.65;100.00
5996;BME280;3026;53.612;7.278;2024-02-16T08:11:36;100675.28;;;10.69;100.00
5996;BME280;3026;53.612;7.278;2024-02-16T08:14:04;100673.22;;;10.71;100.00
5996;BME280;3026;53.612;7.278;2024-02-16T08:16:32;100672.88;;;10.74;100.00
5996;BME280;3026;53.612;7.278;2024-02-16T08:18:59;100673.53;;;10.76;100.00
5996;BME280;3026;53.612;7.278;2024-02-16T08:21:27;100683.09;;;10.80;100.00
5996;BME280;3026;53.612;7.278;2024-02-16T08:23:55;100687.13;;;10.84;100.00
5996;BME280;3026;53.612;7.278;2024-02-16T08:26:26;100684.03;;;10.87;100.00
5996;BME280;3026;53.612;7.278;2024-02-16T08:28:53;100676.56;;;10.89;100.00
5996;BME280;3026;53.612;7.278;2024-02-16T08:31:21;100680.63;;;10.93;100.00
5996;BME280;3026;53.612;7.278;2024-02-16T08:33:49;100679.22;;;10.97;100.00
5996;BME280;3026;53.612;7.278;2024-02-16T08:36:16;100668.63;;;11.02;100.00
5996;BME280;3026;53.612;7.278;2024-02-16T08:38:44;100677.50;;;11.04;100.00
5996;BME280;3026;53.612;7.278;2024-02-16T08:41:15;100680.50;;;11.09;100.00
5996;BME280;3026;53.612;7.278;2024-02-16T08:43:43;100681.22;;;11.12;100.00
5996;BME280;3026;53.612;7.278;2024-02-16T08:46:11;100679.81;;;11.16;100.00
5996;BME280;3026;53.612;7.278;2024-02-16T08:48:38;100672.94;;;11.20;100.00
5996;BME280;3026;53.612;7.278;2024-02-16T08:51:05;100675.31;;;11.23;100.00
5996;BME280;3026;53.612;7.278;2024-02-16T08:53:32;100678.72;;;11.25;100.00
5996;BME280;3026;53.612;7.278;2024-02-16T08:56:00;100683.81;;;11.28;100.00
5996;BME280;3026;53.612;7.278;2024-02-16T08:58:28;100689.94;;;11.30;100.00
5996;BME280;3026;53.612;7.278;2024-02-16T09:00:55;100687.88;;;11.32;100.00
5996;BME280;3026;53.612;7.278;2024-02-16T09:03:22;100688.72;;;11.32;100.00
5996;BME280;3026;53.612;7.278;2024-02-16T09:05:51;100691.28;;;11.34;100.00
5996;BME280;3026;53.612;7.278;2024-02-16T09:08:18;100701.00;;;11.36;100.00
5996;BME280;3026;53.612;7.278;2024-02-16T09:10:45;100692.63;;;11.38;100.00
5996;BME280;3026;53.612;7.278;2024-02-16T09:13:13;100684.25;;;11.39;100.00
5996;BME280;3026;53.612;7.278;2024-02-16T09:15:42;100681.34;;;11.41;100.00
5996;BME280;3026;53.612;7.278;2024-02-16T09:18:09;100691.88;;;11.44;100.00
5996;BME280;3026;53.612;7.278;2024-02-16T09:20:40;100694.44;;;11.46;100.00
5996;BME280;3026;53.612;7.278;2024-02-16T09:23:07;100704.16;;;11.48;100.00
5996;BME280;3026;53.612;7.278;2024-02-16T09:25:33;100702.09;;;11.50;100.00
5996;BME280;3026;53.612;7.278;2024-02-16T09:28:01;100705.47;;;11.52;100.00
5996;BME280;3026;53.612;7.278;2024-02-16T09:30:28;100710.56;;;11.55;100.00
5996;BME280;3026;53.612;7.278;2024-02-16T09:32:58;100714.84;;;11.58;100.00
5996;BME280;3026;53.612;7.278;2024-02-16T09:35:25;100706.47;;;11.59;100.00
5996;BME280;3026;53.612;7.278;2024-02-16T09:37:52;100716.16;;;11.62;100.00
5996;BME280;3026;53.612;7.278;2024-02-16T09:40:20;100713.25;;;11.63;100.00
5996;BME280;3026;53.612;7.278;2024-02-16T09:42:48;100720.03;;;11.67;100.00
5996;BME280;3026;53.612;7.278;2024-02-16T09:45:16;100727.19;;;11.68;100.00
5996;BME280;3026;53.612;7.278;2024-02-16T09:47:45;100721.38;;;11.72;100.00
5996;BME280;3026;53.612;7.278;2024-02-16T09:50:14;100715.56;;;11.75;100.00
5996;BME280;3026;53.612;7.278;2024-02-16T09:52:41;100708.00;;;11.77;100.00
5996;BME280;3026;53.612;7.278;2024-02-16T09:55:15;100713.13;;;11.80;100.00
5996;BME280;3026;53.612;7.278;2024-02-16T09:57:43;100720.63;;;11.86;100.00
5996;BME280;3026;53.612;7.278;2024-02-16T10:00:11;100730.13;;;11.90;100.00
5996;BME280;3026;53.612;7.278;2024-02-16T10:02:42;100734.88;;;11.96;100.00
5996;BME280;3026;53.612;7.278;2024-02-16T10:05:15;100731.38;;;12.02;100.00
5996;BME280;3026;53.612;7.278;2024-02-16T10:07:43;100743.47;;;12.08;100.00
5996;BME280;3026;53.612;7.278;2024-02-16T10:10:22;100744.59;;;12.13;100.00
5996;BME280;3026;53.612;7.278;2024-02-16T10:12:50;100747.66;;;12.18;100.00
5996;BME280;3026;53.612;7.278;2024-02-16T10:15:21;100751.31;;;12.25;100.00
5996;BME280;3026;53.612;7.278;2024-02-16T10:17:59;100763.41;;;12.31;100.00
5996;BME280;3026;53.612;7.278;2024-02-16T10:20:28;100770.00;;;12.37;100.00
5996;BME280;3026;53.612;7.278;2024-02-16T10:23:06;100764.84;;;12.42;100.00
5996;BME280;3026;53.612;7.278;2024-02-16T10:25:35;100772.28;;;12.48;100.00
5996;BME280;3026;53.612;7.278;2024-02-16T10:28:05;100768.16;;;12.52;100.00
5996;BME280;3026;53.612;7.278;2024-02-16T10:30:35;100771.19;;;12.57;100.00
5996;BME280;3026;53.612;7.278;2024-02-16T10:33:05;100774.88;;;12.64;100.00
5996;BME280;3026;53.612;7.278;2024-02-16T10:35:35;100776.66;;;12.72;100.00
5996;BME280;3026;53.612;7.278;2024-02-16T10:38:03;100775.72;;;12.79;100.00
5996;BME280;3026;53.612;7.278;2024-02-16T10:40:32;100775.31;;;12.82;100.00
5996;BME280;3026;53.612;7.278;2024-02-16T10:43:03;100787.63;;;12.87;100.00
5996;BME280;3026;53.612;7.278;2024-02-16T10:45:33;100790.63;;;12.92;100.00
5996;BME280;3026;53.612;7.278;2024-02-16T10:48:01;100781.19;;;12.94;100.00
5996;BME280;3026;53.612;7.278;2024-02-16T10:50:31;100785.25;;;12.98;100.00
5996;BME280;3026;53.612;7.278;2024-02-16T10:53:07;100796.66;;;13.02;100.00
5996;BME280;3026;53.612;7.278;2024-02-16T10:55:36;100787.41;;;13.03;100.00
5996;BME280;3026;53.612;7.278;2024-02-16T10:58:07;100781.94;;;13.03;100.00
5996;BME280;3026;53.612;7.278;2024-02-16T11:00:35;100789.09;;;13.04;100.00
5996;BME280;3026;53.612;7.278;2024-02-16T11:03:04;100799.84;;;13.05;100.00
5996;BME280;3026;53.612;7.278;2024-02-16T11:05:33;100807.22;;;13.05;100.00
5996;BME280;3026;53.612;7.278;2024-02-16T11:08:03;100794.19;;;13.07;100.00
5996;BME280;3026;53.612;7.278;2024-02-16T11:10:31;100791.44;;;13.07;100.00
5996;BME280;3026;53.612;7.278;2024-02-16T11:13:02;100788.72;;;13.07;100.00
5996;BME280;3026;53.612;7.278;2024-02-16T11:15:31;100790.41;;;13.08;100.00
5996;BME280;3026;53.612;7.278;2024-02-16T11:18:00;100790.41;;;13.08;100.00
5996;BME280;3026;53.612;7.278;2024-02-16T11:20:28;100803.09;;;13.09;100.00
5996;BME280;3026;53.612;7.278;2024-02-16T11:23:08;100804.28;;;13.06;100.00
5996;BME280;3026;53.612;7.278;2024-02-16T11:25:38;100793.72;;;13.03;100.00
5996;BME280;3026;53.612;7.278;2024-02-16T11:28:05;100802.13;;;13.02;100.00
5996;BME280;3026;53.612;7.278;2024-02-16T11:30:34;100803.38;;;12.99;100.00
5996;BME280;3026;53.612;7.278;2024-02-16T11:33:02;100797.41;;;12.96;100.00
5996;BME280;3026;53.612;7.278;2024-02-16T11:35:30;100801.19;;;12.95;100.00
5996;BME280;3026;53.612;7.278;2024-02-16T11:37:57;100811.28;;;12.94;100.00
5996;BME280;3026;53.612;7.278;2024-02-16T11:40:27;100807.88;;;12.92;100.00
5996;BME280;3026;53.612;7.278;2024-02-16T11:42:59;100809.97;;;12.90;100.00
5996;BME280;3026;53.612;7.278;2024-02-16T11:45:27;100829.31;;;12.89;100.00
5996;BME280;3026;53.612;7.278;2024-02-16T11:48:05;100835.53;;;12.82;100.00
5996;BME280;3026;53.612;7.278;2024-02-16T11:50:33;100828.75;;;12.78;100.00
5996;BME280;3026;53.612;7.278;2024-02-16T11:53:00;100828.44;;;12.73;100.00
5996;BME280;3026;53.612;7.278;2024-02-16T11:55:29;100831.56;;;12.70;100.00
5996;BME280;3026;53.612;7.278;2024-02-16T11:57:58;100848.34;;;12.67;100.00
5996;BME280;3026;53.612;7.278;2024-02-16T12:00:26;100853.88;;;12.59;100.00
5996;BME280;3026;53.612;7.278;2024-02-16T12:03:00;100859.09;;;12.54;100.00
5996;BME280;3026;53.612;7.278;2024-02-16T12:05:28;100859.53;;;12.43;100.00
5996;BME280;3026;53.612;7.278;2024-02-16T12:07:57;100862.97;;;12.37;100.00
5996;BME280;3026;53.612;7.278;2024-02-16T12:10:25;100867.50;;;12.30;100.00
5996;BME280;3026;53.612;7.278;2024-02-16T12:12:55;100868.22;;;12.23;100.00
5996;BME280;3026;53.612;7.278;2024-02-16T12:15:22;100876.47;;;12.15;100.00
5996;BME280;3026;53.612;7.278;2024-02-16T12:18:06;100885.44;;;12.01;100.00
5996;BME280;3026;53.612;7.278;2024-02-16T12:20:33;100892.69;;;11.94;100.00
5996;BME280;3026;53.612;7.278;2024-02-16T12:23:10;100899.91;;;11.87;100.00
5996;BME280;3026;53.612;7.278;2024-02-16T12:25:39;100903.31;;;11.81;100.00
5996;BME280;3026;53.612;7.278;2024-02-16T12:28:07;100919.38;;;11.76;100.00
5996;BME280;3026;53.612;7.278;2024-02-16T12:30:34;100931.03;;;11.69;100.00
5996;BME280;3026;53.612;7.278;2024-02-16T12:33:02;100937.19;;;11.63;100.00
5996;BME280;3026;53.612;7.278;2024-02-16T12:35:30;100943.91;;;11.53;100.00
5996;BME280;3026;53.612;7.278;2024-02-16T12:37:57;100948.53;;;11.44;100.00
5996;BME280;3026;53.612;7.278;2024-02-16T12:40:24;100955.06;;;11.35;100.00
5996;BME280;3026;53.612;7.278;2024-02-16T12:42:52;100959.50;;;11.28;100.00
5996;BME280;3026;53.612;7.278;2024-02-16T12:45:22;100969.41;;;11.21;100.00
5996;BME280;3026;53.612;7.278;2024-02-16T12:47:49;100966.72;;;11.13;100.00
5996;BME280;3026;53.612;7.278;2024-02-16T12:50:16;100957.16;;;11.08;100.00
5996;BME280;3026;53.612;7.278;2024-02-16T12:52:44;100958.53;;;11.04;100.00
5996;BME280;3026;53.612;7.278;2024-02-16T12:55:15;100959.19;;;10.98;100.00
5996;BME280;3026;53.612;7.278;2024-02-16T12:57:42;100952.41;;;10.94;100.00
5996;BME280;3026;53.612;7.278;2024-02-16T13:00:11;100952.06;;;10.89;100.00
5996;BME280;3026;53.612;7.278;2024-02-16T13:02:41;100956.16;;;10.85;100.00
5996;BME280;3026;53.612;7.278;2024-02-16T13:05:08;100948.66;;;10.79;100.00
5996;BME280;3026;53.612;7.278;2024-02-16T13:07:36;100953.78;;;10.74;100.00